createdAt,value
2023-03-17T00:01:55.140Z,7.67
2023-03-17T00:04:26.645Z,8.98
2023-03-17T00:06:54.383Z,7.22
2023-03-17T00:09:22.319Z,7.00
2023-03-17T00:11:50.129Z,6.55
2023-03-17T00:14:17.469Z,5.40
2023-03-17T00:16:49.567Z,8.05
2023-03-17T00:19:20.016Z,8.88
2023-03-17T00:21:47.142Z,6.45
2023-03-17T00:24:15.290Z,7.97
2023-03-17T00:26:43.289Z,8.40
2023-03-17T00:29:10.825Z,8.32
2023-03-17T00:31:38.957Z,6.57
2023-03-17T00:34:06.522Z,6.47
2023-03-17T00:36:34.412Z,7.20
2023-03-17T00:39:04.106Z,7.23
2023-03-17T00:41:31.236Z,6.70
2023-03-17T00:43:59.804Z,8.38
2023-03-17T00:46:35.836Z,7.72
2023-03-17T00:49:10.921Z,5.30
2023-03-17T00:51:40.547Z,9.27
2023-03-17T00:54:08.542Z,6.90
2023-03-17T00:56:36.637Z,8.85
2023-03-17T00:59:05.108Z,7.30
2023-03-17T01:01:32.457Z,7.97
2023-03-17T01:03:59.870Z,7.87
2023-03-17T01:06:27.085Z,11.27
2023-03-17T01:08:56.053Z,13.05
2023-03-17T01:11:24.515Z,7.72
2023-03-17T01:13:51.320Z,5.28
2023-03-17T01:16:18.636Z,6.17
2023-03-17T01:18:46.138Z,9.18
2023-03-17T01:21:14.037Z,7.60
2023-03-17T01:23:42.018Z,7.68
2023-03-17T01:26:09.361Z,8.43
2023-03-17T01:28:36.232Z,9.13
2023-03-17T01:31:03.781Z,7.43
2023-03-17T01:33:30.923Z,7.35
2023-03-17T01:46:51.562Z,10.23
2023-03-17T01:49:24.986Z,9.02
2023-03-17T01:52:11.807Z,6.50
2023-03-17T01:54:39.787Z,6.03
2023-03-17T01:57:27.007Z,7.47
2023-03-17T01:59:58.170Z,7.60
2023-03-17T02:02:32.422Z,5.82
2023-03-17T02:04:59.779Z,7.93
2023-03-17T02:07:28.030Z,9.57
2023-03-17T02:09:57.074Z,6.43
2023-03-17T02:12:25.390Z,9.47
2023-03-17T02:14:53.227Z,6.63
2023-03-17T02:17:22.087Z,8.20
2023-03-17T02:19:50.390Z,7.30
2023-03-17T02:22:18.108Z,8.52
2023-03-17T02:24:56.414Z,7.47
2023-03-17T02:27:33.883Z,8.27
2023-03-17T02:30:01.242Z,7.35
2023-03-17T02:32:29.486Z,6.15
2023-03-17T02:34:57.215Z,6.20
2023-03-17T02:37:24.490Z,8.57
2023-03-17T02:39:52.584Z,7.70
2023-03-17T02:42:20.119Z,7.22
2023-03-17T02:44:47.014Z,6.50
2023-03-17T02:47:14.487Z,9.32
2023-03-17T02:49:42.833Z,7.33
2023-03-17T02:52:10.097Z,6.80
2023-03-17T02:54:37.392Z,7.53
2023-03-17T02:57:04.450Z,7.13
2023-03-17T02:59:32.073Z,8.40
2023-03-17T03:01:59.261Z,6.33
2023-03-17T03:04:27.160Z,9.23
2023-03-17T03:06:54.752Z,7.25
2023-03-17T03:09:21.954Z,7.70
2023-03-17T03:11:49.287Z,6.30
2023-03-17T03:14:16.431Z,17.30
2023-03-17T03:16:43.688Z,6.55
2023-03-17T03:19:10.733Z,6.68
2023-03-17T03:21:37.657Z,6.05
2023-03-17T03:24:05.434Z,8.75
2023-03-17T03:26:32.300Z,5.77
2023-03-17T03:29:00.262Z,5.85
2023-03-17T03:31:27.691Z,7.43
2023-03-17T03:33:54.725Z,9.40
2023-03-17T03:36:22.575Z,5.50
2023-03-17T03:38:49.757Z,6.83
2023-03-17T03:41:17.545Z,7.35
2023-03-17T03:43:44.735Z,5.93
2023-03-17T03:46:12.067Z,7.57
2023-03-17T03:48:39.398Z,7.35
2023-03-17T03:51:06.757Z,7.83
2023-03-17T03:53:33.659Z,6.32
2023-03-17T03:56:01.059Z,7.82
2023-03-17T03:58:28.282Z,9.20
2023-03-17T04:00:55.959Z,8.23
2023-03-17T04:03:23.353Z,5.50
2023-03-17T04:05:50.683Z,5.95
2023-03-17T04:08:17.522Z,6.55
2023-03-17T04:10:44.758Z,6.93
2023-03-17T04:13:12.924Z,7.25
2023-03-17T04:15:40.138Z,6.57
2023-03-17T04:18:06.957Z,8.00
2023-03-17T04:20:34.142Z,5.35
2023-03-17T04:23:01.706Z,8.80
2023-03-17T04:25:29.176Z,13.68
2023-03-17T04:27:56.588Z,7.97
2023-03-17T04:30:23.864Z,7.85
2023-03-17T04:32:51.238Z,6.60
2023-03-17T04:35:21.506Z,7.38
2023-03-17T04:37:48.999Z,7.40
2023-03-17T04:40:16.612Z,6.10
2023-03-17T04:42:43.532Z,8.32
2023-03-17T04:45:12.429Z,12.60
2023-03-17T04:47:39.648Z,6.78
2023-03-17T04:50:08.932Z,6.45
2023-03-17T04:52:36.819Z,6.10
2023-03-17T04:55:10.322Z,7.63
2023-03-17T04:57:37.582Z,6.18
2023-03-17T05:00:06.084Z,8.75
2023-03-17T05:02:33.352Z,6.00
2023-03-17T05:05:01.091Z,7.97
2023-03-17T05:07:28.626Z,8.55
2023-03-17T05:09:57.034Z,9.65
2023-03-17T05:12:24.250Z,7.18
2023-03-17T05:14:51.554Z,5.90
2023-03-17T05:17:18.749Z,7.43
2023-03-17T05:19:45.803Z,8.05
2023-03-17T05:22:12.985Z,5.55
2023-03-17T05:24:40.322Z,8.43
2023-03-17T05:27:07.522Z,7.88
2023-03-17T05:29:34.718Z,8.67
2023-03-17T05:32:02.115Z,7.20
2023-03-17T05:34:28.937Z,7.50
2023-03-17T05:36:55.791Z,6.57
2023-03-17T05:39:23.068Z,8.48
2023-03-17T05:41:51.187Z,6.17
2023-03-17T05:44:18.635Z,5.57
2023-03-17T05:46:46.033Z,6.68
2023-03-17T05:49:12.908Z,6.47
2023-03-17T05:51:39.681Z,6.88
2023-03-17T05:54:07.351Z,5.50
2023-03-17T05:56:34.617Z,6.05
2023-03-17T05:59:02.323Z,6.43
2023-03-17T06:01:30.006Z,8.00
2023-03-17T06:03:57.365Z,6.65
2023-03-17T06:06:24.600Z,7.03
2023-03-17T06:08:52.466Z,8.48
2023-03-17T06:11:21.464Z,7.47
2023-03-17T06:13:49.010Z,7.25
2023-03-17T06:16:16.540Z,5.10
2023-03-17T06:18:44.528Z,9.27
2023-03-17T06:21:12.065Z,6.30
2023-03-17T06:23:39.286Z,7.88
2023-03-17T06:26:07.098Z,4.43
2023-03-17T06:28:33.903Z,8.63
2023-03-17T06:31:01.255Z,6.07
2023-03-17T06:33:28.704Z,7.90
2023-03-17T06:35:56.363Z,7.32
2023-03-17T06:38:24.801Z,8.50
2023-03-17T06:40:52.028Z,6.25
2023-03-17T06:43:19.665Z,9.87
2023-03-17T06:45:47.023Z,7.13
2023-03-17T06:48:14.254Z,6.95
2023-03-17T06:50:41.679Z,9.32
2023-03-17T06:53:08.893Z,8.30
2023-03-17T06:55:36.160Z,7.43
2023-03-17T06:58:03.261Z,7.38
2023-03-17T07:00:30.505Z,9.48
2023-03-17T07:02:58.725Z,7.13
2023-03-17T07:05:26.369Z,10.13
2023-03-17T07:07:53.609Z,10.30
2023-03-17T07:10:20.473Z,6.65
2023-03-17T07:12:47.842Z,10.05
2023-03-17T07:15:15.502Z,9.38
2023-03-17T07:17:42.779Z,8.93
2023-03-17T07:20:10.860Z,8.53
2023-03-17T07:22:37.678Z,8.98
2023-03-17T07:25:05.068Z,10.27
2023-03-17T07:27:32.417Z,12.52
2023-03-17T07:30:02.245Z,13.45
2023-03-17T07:32:29.539Z,10.13
2023-03-17T07:34:57.134Z,10.18
2023-03-17T07:37:24.835Z,9.02
2023-03-17T07:39:52.183Z,17.85
2023-03-17T07:42:19.739Z,10.93
2023-03-17T07:44:46.710Z,8.67
2023-03-17T07:47:14.769Z,8.35
2023-03-17T07:49:42.589Z,10.60
2023-03-17T07:52:11.050Z,8.05
2023-03-17T07:54:41.545Z,10.55
2023-03-17T07:57:10.104Z,10.93
2023-03-17T07:59:38.266Z,8.55
2023-03-17T08:02:05.712Z,9.25
2023-03-17T08:04:33.150Z,7.13
2023-03-17T08:07:01.401Z,9.82
2023-03-17T08:09:28.177Z,10.07
2023-03-17T08:11:55.151Z,6.43
2023-03-17T08:14:22.349Z,6.25
2023-03-17T08:16:49.696Z,12.10
2023-03-17T08:19:16.609Z,9.80
2023-03-17T08:21:43.937Z,7.57
2023-03-17T08:24:11.914Z,14.45
2023-03-17T08:26:38.827Z,9.55
2023-03-17T08:29:06.106Z,9.98
2023-03-17T08:31:33.916Z,8.57
2023-03-17T08:34:02.689Z,7.93
2023-03-17T08:36:30.847Z,8.07
2023-03-17T08:38:58.108Z,12.93
2023-03-17T08:41:27.441Z,6.57
2023-03-17T08:43:55.069Z,8.38
2023-03-17T08:46:28.211Z,9.93
2023-03-17T08:48:56.969Z,8.05
2023-03-17T08:51:31.640Z,8.70
2023-03-17T08:53:59.925Z,8.23
2023-03-17T08:56:27.548Z,8.15
2023-03-17T08:58:55.160Z,8.37
2023-03-17T09:01:23.149Z,7.85
2023-03-17T09:03:52.683Z,7.30
2023-03-17T09:06:19.726Z,6.38
2023-03-17T09:08:47.561Z,8.07
2023-03-17T09:11:17.178Z,10.70
2023-03-17T09:13:46.483Z,8.77
2023-03-17T09:16:18.077Z,8.57
2023-03-17T09:18:46.470Z,8.23
2023-03-17T09:21:14.514Z,8.75
2023-03-17T09:23:41.712Z,9.73
2023-03-17T09:26:10.158Z,7.43
2023-03-17T09:28:38.078Z,9.30
2023-03-17T09:31:11.582Z,8.13
2023-03-17T09:33:42.297Z,11.57
2023-03-17T09:36:10.629Z,10.80
2023-03-17T09:38:37.938Z,9.05
2023-03-17T09:41:19.771Z,9.60
2023-03-17T09:44:11.319Z,8.98
2023-03-17T09:46:56.660Z,11.50
2023-03-17T09:49:47.396Z,12.47
2023-03-17T09:52:18.633Z,10.05
2023-03-17T09:54:49.737Z,9.13
2023-03-17T09:57:24.811Z,12.65
2023-03-17T10:00:01.695Z,8.18
2023-03-17T10:02:33.434Z,9.83
2023-03-17T10:05:21.836Z,9.43
2023-03-17T10:08:26.994Z,9.75
2023-03-17T10:11:16.424Z,12.73
2023-03-17T10:14:00.587Z,10.77
2023-03-17T10:16:45.815Z,8.57
2023-03-17T10:19:27.407Z,7.93
2023-03-17T10:22:03.001Z,9.60
2023-03-17T10:24:32.798Z,7.68
2023-03-17T10:27:05.035Z,9.93
2023-03-17T10:29:32.696Z,8.27
2023-03-17T10:31:59.579Z,6.95
2023-03-17T10:34:34.636Z,10.32
2023-03-17T10:37:19.887Z,7.75
2023-03-17T10:39:52.975Z,7.70
2023-03-17T10:42:27.816Z,8.13
2023-03-17T10:45:22.201Z,9.80
2023-03-17T10:47:50.168Z,8.90
2023-03-17T10:50:25.424Z,10.65
2023-03-17T10:52:57.845Z,7.38
2023-03-17T10:55:35.391Z,12.67
2023-03-17T10:58:05.971Z,8.77
2023-03-17T11:00:36.220Z,9.43
2023-03-17T11:03:18.510Z,8.05
2023-03-17T11:06:05.300Z,10.30
2023-03-17T11:08:35.617Z,11.27
2023-03-17T11:11:07.531Z,7.70
2023-03-17T11:13:34.784Z,11.60
2023-03-17T11:16:17.576Z,10.57
2023-03-17T11:18:47.209Z,8.90
2023-03-17T11:21:46.828Z,9.18
2023-03-17T11:24:36.838Z,11.48
2023-03-17T11:27:31.576Z,8.95
2023-03-17T11:30:14.901Z,8.95
2023-03-17T11:32:57.637Z,11.18
2023-03-17T11:35:48.335Z,10.00
2023-03-17T11:38:31.444Z,13.90
2023-03-17T11:40:58.639Z,9.23
2023-03-17T11:43:50.001Z,11.05
2023-03-17T11:46:24.330Z,8.20
2023-03-17T11:49:06.697Z,11.60
2023-03-17T11:51:37.407Z,8.48
2023-03-17T11:54:13.369Z,9.88
2023-03-17T11:56:47.766Z,10.52
2023-03-17T11:59:30.659Z,8.73
2023-03-17T12:02:38.686Z,9.57
2023-03-17T12:05:10.018Z,10.27
2023-03-17T12:07:44.774Z,9.32
2023-03-17T12:10:25.773Z,10.18
2023-03-17T12:13:21.174Z,10.23
2023-03-17T12:16:03.398Z,11.20
2023-03-17T12:18:49.438Z,13.38
2023-03-17T12:22:07.732Z,11.73
2023-03-17T12:25:04.707Z,10.30
2023-03-17T12:27:43.249Z,11.65
2023-03-17T12:30:29.248Z,8.80
2023-03-17T12:33:18.081Z,11.00
2023-03-17T12:35:45.409Z,10.48
2023-03-17T12:38:36.399Z,9.70
2023-03-17T12:41:27.401Z,13.45
2023-03-17T12:44:15.831Z,9.18
2023-03-17T12:47:04.514Z,11.05
2023-03-17T12:50:09.565Z,12.15
2023-03-17T12:53:11.376Z,11.10
2023-03-17T12:55:39.018Z,10.85
2023-03-17T12:58:22.403Z,14.60
2023-03-17T13:01:02.022Z,10.75
2023-03-17T13:03:33.003Z,9.98
2023-03-17T13:06:02.194Z,9.77
2023-03-17T13:08:32.234Z,11.07
2023-03-17T13:11:18.569Z,10.43
2023-03-17T13:13:54.606Z,12.38
2023-03-17T13:16:33.877Z,11.45
2023-03-17T13:19:21.287Z,12.43
2023-03-17T13:22:03.490Z,8.55
2023-03-17T13:24:49.014Z,11.55
2023-03-17T13:27:33.788Z,12.13
2023-03-17T13:30:41.110Z,11.93
2023-03-17T13:33:15.680Z,12.07
2023-03-17T13:35:46.167Z,15.05
2023-03-17T13:39:05.166Z,10.02
2023-03-17T13:41:37.780Z,11.27
2023-03-17T13:44:23.599Z,9.30
2023-03-17T13:46:51.645Z,10.18
2023-03-17T13:49:18.781Z,9.73
2023-03-17T13:52:00.358Z,9.35
2023-03-17T13:54:30.315Z,16.63
2023-03-17T13:57:17.372Z,12.05
2023-03-17T14:00:14.719Z,13.20
2023-03-17T14:02:43.248Z,11.35
2023-03-17T14:05:29.848Z,11.48
2023-03-17T14:08:22.147Z,12.02
2023-03-17T14:10:59.519Z,14.65
2023-03-17T14:13:30.066Z,12.43
2023-03-17T14:16:17.194Z,13.23
2023-03-17T14:18:49.865Z,10.48
2023-03-17T14:21:29.562Z,14.45
2023-03-17T14:23:58.857Z,10.85
2023-03-17T14:26:32.453Z,9.85
2023-03-17T14:29:01.100Z,12.98
2023-03-17T14:31:29.167Z,11.85
2023-03-17T14:33:58.476Z,8.68
2023-03-17T14:36:27.494Z,10.38
2023-03-17T14:38:56.770Z,12.75
2023-03-17T14:41:28.253Z,10.00
2023-03-17T14:44:00.269Z,10.98
2023-03-17T14:46:30.627Z,12.43
2023-03-17T14:49:23.817Z,11.18
2023-03-17T14:51:53.530Z,8.75
2023-03-17T14:54:24.501Z,10.95
2023-03-17T14:56:59.910Z,10.68
2023-03-17T14:59:36.929Z,10.82
2023-03-17T15:02:28.505Z,12.77
2023-03-17T15:05:17.137Z,14.00
2023-03-17T15:07:43.978Z,14.25
2023-03-17T15:10:17.028Z,11.13
2023-03-17T15:12:46.681Z,15.77
2023-03-17T15:15:22.672Z,12.23
2023-03-17T15:17:56.136Z,10.65
2023-03-17T15:20:23.658Z,10.30
2023-03-17T15:22:56.368Z,10.57
2023-03-17T15:25:41.898Z,9.07
2023-03-17T15:28:15.969Z,10.90
2023-03-17T15:30:48.077Z,10.40
2023-03-17T15:33:22.953Z,14.32
2023-03-17T15:35:51.217Z,10.07
2023-03-17T15:38:18.223Z,11.98
2023-03-17T15:40:45.681Z,12.93
2023-03-17T15:43:15.559Z,14.48
2023-03-17T15:45:44.802Z,11.10
2023-03-17T15:48:17.642Z,9.93
2023-03-17T15:50:47.222Z,8.30
2023-03-17T15:53:14.317Z,12.40
2023-03-17T15:55:41.602Z,9.43
2023-03-17T15:58:08.417Z,9.98
2023-03-17T16:00:36.273Z,9.30
2023-03-17T16:03:19.464Z,14.10
2023-03-17T16:05:46.738Z,11.00
2023-03-17T16:08:14.709Z,9.02
2023-03-17T16:10:41.912Z,10.98
2023-03-17T16:13:09.612Z,9.32
2023-03-17T16:15:42.177Z,12.57
2023-03-17T16:18:14.965Z,12.38
2023-03-17T16:20:44.137Z,12.63
2023-03-17T16:23:15.753Z,9.95
2023-03-17T16:25:43.348Z,13.82
2023-03-17T16:28:24.752Z,14.57
2023-03-17T16:30:53.195Z,11.52
2023-03-17T16:33:38.135Z,13.15
2023-03-17T16:36:05.784Z,13.65
2023-03-17T16:38:34.546Z,13.10
2023-03-17T16:41:07.578Z,12.20
2023-03-17T16:43:40.008Z,15.82
2023-03-17T16:46:07.488Z,11.30
2023-03-17T16:48:35.113Z,11.10
2023-03-17T16:51:02.402Z,13.10
2023-03-17T16:53:29.645Z,16.08
2023-03-17T16:55:57.387Z,10.98
2023-03-17T16:58:34.085Z,13.75
2023-03-17T17:01:03.975Z,10.77
2023-03-17T17:03:31.466Z,15.70
2023-03-17T17:05:58.437Z,14.02
2023-03-17T17:08:25.698Z,12.45
2023-03-17T17:10:52.910Z,14.32
2023-03-17T17:13:19.799Z,13.70
2023-03-17T17:15:46.784Z,11.43
2023-03-17T17:18:18.784Z,9.93
2023-03-17T17:20:45.905Z,12.95
2023-03-17T17:23:16.080Z,12.25
2023-03-17T17:25:43.555Z,12.73
2023-03-17T17:28:11.220Z,11.75
2023-03-17T17:30:38.283Z,12.07
2023-03-17T17:33:05.790Z,12.13
2023-03-17T17:35:33.385Z,12.23
2023-03-17T17:38:01.899Z,11.10
2023-03-17T17:40:29.412Z,14.55
2023-03-17T17:42:56.574Z,14.93
2023-03-17T17:45:24.287Z,13.95
2023-03-17T17:47:51.825Z,14.52
2023-03-17T17:50:26.199Z,11.05
2023-03-17T17:52:53.798Z,40.15
2023-03-17T17:55:21.099Z,81.00
2023-03-17T17:57:49.117Z,59.85
2023-03-17T18:00:18.052Z,27.35
2023-03-17T18:02:45.415Z,21.27
2023-03-17T18:05:13.202Z,17.30
2023-03-17T18:07:40.786Z,15.10
2023-03-17T18:10:08.614Z,14.20
2023-03-17T18:12:35.905Z,12.63
2023-03-17T18:15:05.358Z,13.25
2023-03-17T18:17:32.644Z,13.30
2023-03-17T18:19:59.950Z,13.38
2023-03-17T18:22:27.819Z,13.73
2023-03-17T18:24:54.696Z,12.70
2023-03-17T18:27:21.941Z,12.85
2023-03-17T18:29:49.247Z,19.30
2023-03-17T18:32:16.585Z,13.93
2023-03-17T18:34:47.774Z,14.32
2023-03-17T18:37:17.392Z,15.52
2023-03-17T18:39:45.992Z,12.65
2023-03-17T18:42:15.328Z,14.17
2023-03-17T18:44:42.214Z,11.10
2023-03-17T18:47:09.620Z,21.27
2023-03-17T18:49:36.531Z,16.02
2023-03-17T18:52:05.053Z,19.00
2023-03-17T18:54:32.314Z,13.98
2023-03-17T18:56:59.676Z,12.23
2023-03-17T18:59:27.115Z,15.48
2023-03-17T19:01:54.306Z,13.85
2023-03-17T19:04:21.836Z,15.40
2023-03-17T19:06:48.793Z,19.40
2023-03-17T19:09:16.374Z,17.38
2023-03-17T19:11:43.622Z,15.05
2023-03-17T19:14:11.786Z,15.85
2023-03-17T19:16:38.675Z,16.35
2023-03-17T19:19:06.530Z,16.35
2023-03-17T19:21:33.847Z,16.42
2023-03-17T19:24:01.704Z,21.35
2023-03-17T19:26:30.349Z,19.45
2023-03-17T19:28:57.702Z,21.13
2023-03-17T19:31:25.213Z,18.30
2023-03-17T19:33:52.533Z,16.92
2023-03-17T19:36:19.925Z,15.73
2023-03-17T19:38:47.197Z,16.13
2023-03-17T19:41:15.568Z,15.40
2023-03-17T19:43:42.998Z,17.30
2023-03-17T19:46:11.918Z,14.65
2023-03-17T19:48:39.856Z,17.60
2023-03-17T19:51:08.008Z,15.68
2023-03-17T19:53:35.499Z,16.77
2023-03-17T19:56:02.963Z,15.70
2023-03-17T19:58:30.618Z,16.02
2023-03-17T20:00:57.901Z,16.27
2023-03-17T20:03:26.361Z,14.50
2023-03-17T20:05:53.783Z,14.45
2023-03-17T20:08:22.622Z,18.37
2023-03-17T20:10:55.709Z,15.50
2023-03-17T20:13:23.159Z,21.65
2023-03-17T20:15:51.684Z,17.23
2023-03-17T20:18:19.150Z,15.73
2023-03-17T20:20:51.060Z,22.30
2023-03-17T20:23:18.310Z,14.57
2023-03-17T20:25:45.655Z,16.77
2023-03-17T20:28:13.149Z,15.40
2023-03-17T20:30:40.534Z,16.13
2023-03-17T20:33:09.814Z,15.43
2023-03-17T20:35:39.675Z,17.77
2023-03-17T20:38:08.264Z,18.40
2023-03-17T20:40:35.734Z,19.88
2023-03-17T20:43:02.985Z,17.42
2023-03-17T20:45:30.563Z,17.20
2023-03-17T20:47:58.018Z,15.93
2023-03-17T20:50:25.193Z,17.17
2023-03-17T20:52:52.421Z,12.43
2023-03-17T20:55:20.186Z,13.05
2023-03-17T20:57:49.401Z,13.43
2023-03-17T21:00:20.012Z,17.98
2023-03-17T21:02:50.155Z,15.00
2023-03-17T21:05:21.351Z,16.90
2023-03-17T21:07:48.970Z,16.10
2023-03-17T21:10:16.759Z,15.10
2023-03-17T21:12:44.357Z,14.13
2023-03-17T21:15:12.874Z,17.38
2023-03-17T21:17:42.194Z,17.05
2023-03-17T21:20:11.639Z,15.23
2023-03-17T21:22:39.936Z,17.93
2023-03-17T21:25:08.770Z,19.80
2023-03-17T21:27:39.771Z,16.25
2023-03-17T21:30:13.411Z,13.65
2023-03-17T21:32:41.859Z,14.80
2023-03-17T21:35:09.545Z,18.57
2023-03-17T21:37:36.500Z,13.95
2023-03-17T21:40:05.066Z,17.17
2023-03-17T21:42:32.288Z,13.95
2023-03-17T21:44:59.552Z,16.45
2023-03-17T21:47:26.472Z,15.97
2023-03-17T21:49:53.356Z,15.27
2023-03-17T21:52:21.625Z,15.95
2023-03-17T21:54:48.990Z,20.25
2023-03-17T21:57:16.633Z,18.38
2023-03-17T21:59:43.921Z,16.40
2023-03-17T22:02:12.641Z,16.98
2023-03-17T22:04:41.605Z,18.25
2023-03-17T22:07:09.081Z,14.32
2023-03-17T22:09:36.583Z,14.00
2023-03-17T22:12:04.310Z,15.33
2023-03-17T22:14:32.087Z,18.92
2023-03-17T22:16:59.339Z,15.32
2023-03-17T22:19:28.691Z,16.58
2023-03-17T22:21:56.616Z,14.20
2023-03-17T22:24:25.381Z,18.00
2023-03-17T22:26:52.217Z,20.45
2023-03-17T22:29:19.881Z,17.63
2023-03-17T22:31:47.298Z,16.27
2023-03-17T22:34:14.605Z,15.80
2023-03-17T22:36:42.052Z,14.87
2023-03-17T22:39:10.886Z,17.15
2023-03-17T22:41:38.615Z,17.60
2023-03-17T22:44:08.221Z,19.63
2023-03-17T22:46:36.114Z,23.17
2023-03-17T22:49:03.196Z,15.37
2023-03-17T22:51:30.141Z,16.08
2023-03-17T22:53:57.590Z,15.65
2023-03-17T22:56:26.149Z,17.88
2023-03-17T22:58:54.276Z,15.43
2023-03-17T23:01:23.478Z,18.70
2023-03-17T23:03:51.097Z,17.42
2023-03-17T23:06:19.439Z,19.40
2023-03-17T23:08:47.168Z,12.68
2023-03-17T23:11:19.117Z,13.50
2023-03-17T23:13:47.435Z,18.10
2023-03-17T23:16:14.869Z,15.82
2023-03-17T23:18:44.637Z,14.57
2023-03-17T23:21:23.617Z,16.60
2023-03-17T23:23:51.150Z,15.90
2023-03-17T23:26:18.080Z,15.43
2023-03-17T23:28:46.502Z,16.50
2023-03-17T23:31:15.812Z,14.50
2023-03-17T23:33:43.664Z,19.65
2023-03-17T23:36:10.941Z,18.63
2023-03-17T23:38:38.198Z,12.53
2023-03-17T23:41:05.094Z,13.45
2023-03-17T23:43:32.341Z,17.65
2023-03-17T23:45:59.557Z,15.68
2023-03-17T23:48:27.530Z,17.65
2023-03-17T23:50:54.464Z,18.83
2023-03-17T23:53:23.457Z,18.52
2023-03-17T23:55:51.478Z,19.00
2023-03-17T23:58:18.526Z,17.15
